地図

経路データ

SID SEASON NUMBER BASIN SUBBASIN NAME ISO_TIME NATURE LAT LON WMO_WIND WMO_PRES WMO_AGENCY TRACK_TYPE DIST2LAND LANDFALL IFLAG USA_AGENCY USA_ATCF_ID USA_LAT USA_LON USA_RECORD USA_STATUS USA_WIND USA_PRES USA_SSHS USA_R34_NE USA_R34_SE USA_R34_SW USA_R34_NW USA_R50_NE USA_R50_SE USA_R50_SW USA_R50_NW USA_R64_NE USA_R64_SE USA_R64_SW USA_R64_NW USA_POCI USA_ROCI USA_RMW USA_EYE TOKYO_LAT TOKYO_LON TOKYO_GRADE TOKYO_WIND TOKYO_PRES TOKYO_R50_DIR TOKYO_R50_LONG TOKYO_R50_SHORT TOKYO_R30_DIR TOKYO_R30_LONG TOKYO_R30_SHORT TOKYO_LAND CMA_LAT CMA_LON CMA_CAT CMA_WIND CMA_PRES HKO_LAT HKO_LON HKO_CAT HKO_WIND HKO_PRES NEWDELHI_LAT NEWDELHI_LON NEWDELHI_GRADE NEWDELHI_WIND NEWDELHI_PRES NEWDELHI_CI NEWDELHI_DP NEWDELHI_POCI REUNION_LAT REUNION_LON REUNION_TYPE REUNION_WIND REUNION_PRES REUNION_TNUM REUNION_CI REUNION_RMW REUNION_R34_NE REUNION_R34_SE REUNION_R34_SW REUNION_R34_NW REUNION_R50_NE REUNION_R50_SE REUNION_R50_SW REUNION_R50_NW REUNION_R64_NE REUNION_R64_SE REUNION_R64_SW REUNION_R64_NW BOM_LAT BOM_LON BOM_TYPE BOM_WIND BOM_PRES BOM_TNUM BOM_CI BOM_RMW BOM_R34_NE BOM_R34_SE BOM_R34_SW BOM_R34_NW BOM_R50_NE BOM_R50_SE BOM_R50_SW BOM_R50_NW BOM_R64_NE BOM_R64_SE BOM_R64_SW BOM_R64_NW BOM_ROCI BOM_POCI BOM_EYE BOM_POS_METHOD BOM_PRES_METHOD NADI_LAT NADI_LON NADI_CAT NADI_WIND NADI_PRES WELLINGTON_LAT WELLINGTON_LON WELLINGTON_WIND WELLINGTON_PRES DS824_LAT DS824_LON DS824_STAGE DS824_WIND DS824_PRES TD9636_LAT TD9636_LON TD9636_STAGE TD9636_WIND TD9636_PRES TD9635_LAT TD9635_LON TD9635_WIND TD9635_PRES TD9635_ROCI NEUMANN_LAT NEUMANN_LON NEUMANN_CLASS NEUMANN_WIND NEUMANN_PRES MLC_LAT MLC_LON MLC_CLASS MLC_WIND MLC_PRES USA_GUST BOM_GUST BOM_GUST_PER REUNION_GUST REUNION_GUST_PER USA_SEAHGT USA_SEARAD_NE USA_SEARAD_SE USA_SEARAD_SW USA_SEARAD_NW STORM_SPEED STORM_DIR
1967028N05140 1967 11 WP MM RUBY 1967-01-28 00:00:00 NR 5.00000 140.100 main 769 769 ___O__________ -1 5.00000 140.100 TD 25 1004 1 317
1967028N05140 1967 11 WP MM RUBY 1967-01-28 03:00:00 NR 5.05000 140.060 main 769 769 ___P__________ -1 5.05000 140.060 TD 25 1003 1 0
1967028N05140 1967 11 WP MM RUBY 1967-01-28 06:00:00 TS 5.12000 140.080 1000 tokyo main 779 777 _OOO__________ -1 5.10000 140.200 2 1000 0 0 0 5.20000 140.200 1 29 1000 5.10000 140.000 TD 25 1002 1 0
1967028N05140 1967 11 WP MM RUBY 1967-01-28 09:00:00 TS 5.10875 140.034 main 777 777 _PPP__________ -1 5.04000 140.160 2 999 0 0 5.09500 140.160 1 29 999 5.15000 139.908 TD 25 1001 1 248
1967028N05140 1967 11 WP MM RUBY 1967-01-28 12:00:00 TS 5.08000 139.980 998 tokyo main 777 774 _OOO__________ -1 5.00000 140.100 2 998 0 0 0 5.00000 140.100 1 29 999 5.20000 139.800 TD 25 1000 1 250
1967028N05140 1967 11 WP MM RUBY 1967-01-28 15:00:00 TS 5.05917 139.905 main 774 771 _PPP__________ -1 4.99250 140.008 2 998 0 0 4.92750 140.008 1 29 998 5.25750 139.700 TD 25 999 2 266
1967028N05140 1967 11 WP MM RUBY 1967-01-28 18:00:00 TS 5.06667 139.800 998 tokyo main 771 769 _OOO__________ -1 5.00000 139.900 2 998 0 0 0 4.90000 139.900 1 29 998 5.30000 139.600 TD 25 998 2 271
1967028N05140 1967 11 WP MM RUBY 1967-01-28 21:00:00 TS 5.06082 139.712 main 769 766 _PPP__________ -1 4.96998 139.822 2 997 0 0 4.91249 139.815 1 29 997 5.30000 139.500 TD 25 997 2 280
1967028N05140 1967 11 WP MM RUBY 1967-01-29 00:00:00 TS 5.10000 139.600 996 tokyo main 766 764 _OOO__________ -1 5.00000 139.700 2 996 0 0 0 5.00000 139.700 1 29 996 5.30000 139.400 TD 25 996 3 299
1967028N05140 1967 11 WP MM RUBY 1967-01-29 03:00:00 TS 5.23002 139.409 main 773 773 _PPP__________ -1 5.16254 139.428 2 997 0 0 5.18502 139.500 1 29 997 5.34250 139.300 TD 25 997 5 310
1967028N05140 1967 11 WP MM RUBY 1967-01-29 06:00:00 TS 5.40000 139.233 998 tokyo main 785 785 _OOO__________ -1 5.40000 139.200 2 998 0 0 0 5.40000 139.300 1 29 998 5.40000 139.200 TD 25 998 4 323
1967028N05140 1967 11 WP MM RUBY 1967-01-29 09:00:00 TS 5.57249 139.146 main 800 800 _PPP__________ -1 5.68748 139.190 2 999 0 0 5.57999 139.148 1 29 998 5.45000 139.100 TD 25 999 3 343
1967028N05140 1967 11 WP MM RUBY 1967-01-29 12:00:00 TS 5.70000 139.133 1000 tokyo main 810 810 _OOO__________ -1 5.90000 139.300 2 1000 0 0 0 5.70000 139.100 1 29 999 5.50000 139.000 TD 25 1000 2 12
1967028N05140 1967 11 WP MM RUBY 1967-01-29 15:00:00 TS 5.72751 139.190 main 815 815 _PPP__________ -1 5.90252 139.458 2 1000 0 0 5.73751 139.220 1 29 999 5.54250 138.893 TD 25 1000 1 90
1967028N05140 1967 11 WP MM RUBY 1967-01-29 18:00:00 TS 5.70000 139.267 1000 tokyo main 820 820 _OOO__________ -1 5.80000 139.600 2 1000 0 0 0 5.70000 139.400 1 29 1000 5.60000 138.800 TD 25 1000 1 118
1967028N05140 1967 11 WP MM RUBY 1967-01-29 21:00:00 TS 5.66916 139.303 main 820 810 _PPP__________ -1 5.69999 139.630 2 1000 0 0 5.60750 139.530 1 29 1000 5.69999 138.750 TD 25 1000 1 147
1967028N05140 1967 11 WP MM RUBY 1967-01-30 00:00:00 TS 5.63333 139.300 1000 tokyo main 810 810 _OOO__________ -1 5.60000 139.600 2 1000 0 0 0 5.50000 139.600 1 29 1000 5.80000 138.700 TD 25 1000 1 223
1967028N05140 1967 11 WP MM RUBY 1967-01-30 03:00:00 TS 5.61167 139.251 main 810 805 _PPP__________ -1 5.53500 139.565 2 1000 0 0 5.43500 139.580 1 29 1000 5.86500 138.607 TD 25 1000 1 256
1967028N05140 1967 11 WP MM RUBY 1967-01-30 06:00:00 TS 5.60000 139.167 1000 tokyo main 805 800 _OOO__________ -1 5.50000 139.500 2 1000 0 0 0 5.40000 139.500 1 29 1000 5.90000 138.500 TD 25 1000 2 264
1967028N05140 1967 11 WP MM RUBY 1967-01-30 09:00:00 TS 5.59250 139.074 main 800 795 _PPP__________ -1 5.49250 139.415 2 1000 0 0 5.38500 139.408 1 29 1000 5.90000 138.400 TD 25 1000 2 270
1967028N05140 1967 11 WP MM RUBY 1967-01-30 12:00:00 TS 5.60000 138.967 1000 tokyo main 795 790 _OOO__________ -1 5.50000 139.300 2 1000 0 0 0 5.40000 139.300 1 29 1000 5.90000 138.300 TD 25 1000 2 279
1967028N05140 1967 11 WP MM RUBY 1967-01-30 15:00:00 TS 5.62834 138.848 main 786 786 _PPP__________ -1 5.49251 139.143 2 1000 0 0 5.44250 139.200 1 29 1000 5.95000 138.200 TD 25 1000 2 286
1967028N05140 1967 11 WP MM RUBY 1967-01-30 18:00:00 TS 5.66667 138.733 1000 tokyo main 792 792 _OOO__________ -1 5.50000 139.000 2 1000 0 0 0 5.50000 139.100 1 29 1000 6.00000 138.100 TD 25 1000 2 290
1967028N05140 1967 11 WP MM RUBY 1967-01-30 21:00:00 TS 5.69749 138.655 main 792 787 _PPP__________ -1 5.54249 138.950 2 1000 0 0 5.54999 139.015 1 29 1000 6.00000 138.000 TD 25 1000 2 292
1967028N05140 1967 11 WP MM RUBY 1967-01-31 00:00:00 TS 5.73333 138.567 1000 tokyo main 787 783 _OOO__________ -1 5.60000 138.900 2 1000 0 0 0 5.60000 138.900 1 29 1000 6.00000 137.900 TD 25 1000 2 291
1967028N05140 1967 11 WP MM RUBY 1967-01-31 03:00:00 TS 5.77832 138.442 main 790 786 _PPP__________ -1 5.64997 138.795 2 1000 0 0 5.64249 138.730 1 29 1000 6.04250 137.800 TD 27 999 3 289
1967028N05140 1967 11 WP MM RUBY 1967-01-31 06:00:00 TS 5.83333 138.267 1000 tokyo main 786 782 _OOO__________ -1 5.70000 138.600 2 1000 0 0 0 5.70000 138.500 1 29 1000 6.10000 137.700 TD 30 999 4 287
1967028N05140 1967 11 WP MM RUBY 1967-01-31 09:00:00 TS 5.89749 138.039 main 786 778 _PPP__________ -1 5.74251 138.287 2 1000 0 0 5.79998 138.230 1 29 1000 6.15000 137.600 TD 30 998 5 285
1967028N05140 1967 11 WP MM RUBY 1967-01-31 12:00:00 TS 5.96667 137.767 1000 tokyo main 789 779 _OOO__________ -1 5.80000 137.900 2 1000 0 0 0 5.90000 137.900 1 29 1000 6.20000 137.500 TD 30 998 6 284
1967028N05140 1967 11 WP MM RUBY 1967-01-31 15:00:00 TS 6.03583 137.474 main 779 777 _PPP__________ -1 5.89999 137.508 2 1000 0 0 5.95750 137.515 1 29 1000 6.25000 137.400 TD 30 999 6 283
1967028N05140 1967 11 WP MM RUBY 1967-01-31 18:00:00 TS 6.10000 137.167 1000 tokyo main 782 775 _OOO__________ -1 6.00000 137.100 2 1000 0 0 0 6.00000 137.100 1 29 1000 6.30000 137.300 TD 30 1000 6 280
1967028N05140 1967 11 WP MM RUBY 1967-01-31 21:00:00 TS 6.13487 136.917 main 775 773 _PPP__________ -1 6.04243 136.715 2 1001 0 0 6.03493 136.715 1 29 1001 6.32723 137.320 TD 30 1001 6 280
1967028N05140 1967 11 WP MM RUBY 1967-02-01 00:00:00 TS 6.20000 136.567 1002 tokyo main 781 778 _OOO__________ -1 6.10000 136.300 2 1002 0 0 0 6.10000 136.300 1 29 1002 6.40000 137.100 TD 30 1002 10 283
1967028N05140 1967 11 WP MM RUBY 1967-02-01 03:00:00 TS 6.34683 135.968 main 785 785 _PPP__________ -1 6.22747 135.822 2 1002 0 0 6.23497 135.823 1 29 1002 6.57806 136.260 TD 30 1002 13 285
1967028N05140 1967 11 WP MM RUBY 1967-02-01 06:00:00 TS 6.53333 135.300 1002 tokyo main 807 807 _OOO__________ -1 6.40000 135.300 2 1002 0 0 0 6.40000 135.300 1 29 1002 6.80000 135.300 TD 30 1002 13 287
1967028N05140 1967 11 WP MM RUBY 1967-02-01 09:00:00 TS 6.72660 134.732 main 815 792 _PPP__________ -1 6.60755 134.728 2 1003 0 0 6.55755 134.728 1 29 1003 7.01470 134.740 TD 30 1002 11 289
1967028N05140 1967 11 WP MM RUBY 1967-02-01 12:00:00 TS 6.90000 134.233 1004 tokyo main 784 757 _OOO__________ -1 6.80000 134.200 2 1004 0 0 0 6.70000 134.200 1 29 1004 7.20000 134.300 TD 30 1002 10 287
1967028N05140 1967 11 WP MM RUBY 1967-02-01 15:00:00 TS 7.00493 133.803 main 757 740 _PPP__________ -1 6.91492 133.805 2 1004 0 0 6.80743 133.805 1 29 1004 7.29245 133.800 TD 30 1002 8 284
1967028N05140 1967 11 WP MM RUBY 1967-02-01 18:00:00 TS 7.10000 133.433 1004 tokyo main 733 717 _OOO__________ -1 7.00000 133.500 2 1004 0 0 0 6.90000 133.500 1 29 1004 7.40000 133.300 TD 30 1003 8 289
1967028N05140 1967 11 WP MM RUBY 1967-02-01 21:00:00 TS 7.24998 133.080 main 717 684 _PPP__________ -1 7.10746 133.235 2 1004 0 0 6.99996 133.235 1 29 1004 7.64253 132.770 TD 30 1003 7 294
1967028N05140 1967 11 WP MM RUBY 1967-02-02 00:00:00 TS 7.40000 132.767 1004 tokyo main 684 651 _OOO__________ -1 7.20000 133.000 2 1004 0 0 0 7.10000 133.000 1 29 1004 7.90000 132.300 TD 30 1004 6 293
1967028N05140 1967 11 WP MM RUBY 1967-02-02 03:00:00 TS 7.49997 132.482 main 651 617 _PPP__________ -1 7.25000 132.742 2 1003 0 0 7.20000 132.743 1 29 1003 8.04991 131.962 TD 30 1004 6 291
1967028N05140 1967 11 WP MM RUBY 1967-02-02 06:00:00 TS 7.60000 132.233 1002 tokyo main 617 595 _OOO__________ -1 7.30000 132.500 2 1002 0 0 0 7.30000 132.500 1 29 1002 8.20000 131.700 TD 30 1004 5 298
1967028N05140 1967 11 WP MM RUBY 1967-02-02 09:00:00 TS 7.74748 132.004 main 595 573 _PPP__________ -1 7.39248 132.293 2 1002 0 0 7.39998 132.292 1 29 1002 8.44999 131.428 TD 30 1003 5 305
1967028N05140 1967 11 WP MM RUBY 1967-02-02 12:00:00 TS 7.90000 131.800 1002 tokyo main 573 552 _OOO__________ -1 7.50000 132.100 2 1002 0 0 0 7.50000 132.100 1 29 1002 8.70000 131.200 TD 30 1003 5 304
1967028N05140 1967 11 WP MM RUBY 1967-02-02 15:00:00 TS 8.00915 131.614 main 552 531 _PPP__________ -1 7.59249 131.900 2 1002 0 0 7.59250 131.893 1 29 1002 8.84245 131.050 TD 30 1002 4 303
1967028N05140 1967 11 WP MM RUBY 1967-02-02 18:00:00 TS 8.13333 131.433 1002 tokyo main 531 511 _OOO__________ -1 7.70000 131.700 2 1002 0 0 0 7.70000 131.700 1 29 1002 9.00000 130.900 TD 30 1002 5 307
1967028N05140 1967 11 WP MM RUBY 1967-02-02 21:00:00 TS 8.31085 131.216 main 511 493 _PPP__________ -1 7.82751 131.478 2 1002 0 0 7.82749 131.535 1 29 1002 9.27756 130.635 TD 30 1002 6 315
1967028N05140 1967 11 WP MM RUBY 1967-02-03 00:00:00 TS 8.53333 131.033 1002 tokyo main 493 489 _OOO__________ -1 8.00000 131.300 2 1002 0 0 0 8.00000 131.400 1 29 1002 9.60000 130.400 TD 30 1002 6 330
1967028N05140 1967 11 WP MM RUBY 1967-02-03 03:00:00 TS 8.79998 130.937 main 489 489 _PPP__________ -1 8.23499 131.220 2 1002 0 0 8.23500 131.278 1 29 1002 9.92997 130.312 TD 30 1002 6 346
1967028N05140 1967 11 WP MM RUBY 1967-02-03 06:00:00 TS 9.06667 130.900 1002 tokyo main 498 498 _OOO__________ -1 8.50000 131.200 2 1002 0 0 0 8.50000 131.200 1 29 1002 10.2000 130.300 TD 30 1003 5 353
1967028N05140 1967 11 WP MM RUBY 1967-02-03 09:00:00 TS 9.26916 130.887 main 506 506 _PPP__________ -1 8.75000 131.185 2 1002 0 0 8.74999 131.177 1 29 1002 10.3075 130.300 TD 30 1003 4 0
1967028N05140 1967 11 WP MM RUBY 1967-02-03 12:00:00 TS 9.46667 130.900 1002 tokyo main 511 511 _OOO__________ -1 9.00000 131.200 2 1002 0 0 0 9.00000 131.200 1 29 1002 10.4000 130.300 TD 30 1004 4 0
1967028N05140 1967 11 WP MM RUBY 1967-02-03 15:00:00 TS 9.70667 130.907 main 515 515 _PPP__________ -1 9.25000 131.235 2 1002 0 0 9.25000 131.235 1 29 1002 10.6200 130.250 TD 30 1003 5 5
1967028N05140 1967 11 WP MM RUBY 1967-02-03 18:00:00 TS 9.96667 130.933 1002 tokyo main 522 522 _OOO__________ -1 9.50000 131.300 2 1002 0 0 0 9.50000 131.300 1 29 1002 10.9000 130.200 TD 30 1003 5 9
1967028N05140 1967 11 WP MM RUBY 1967-02-03 21:00:00 TS 10.2333 130.995 main 538 538 _PPP__________ -1 9.75001 131.400 2 1002 0 0 9.75001 131.400 1 29 1002 11.2000 130.185 TD 30 1002 14 6
1967028N05140 1967 11 WP MM RUBY 1967-02-04 00:00:00 TS 11.3250 131.075 1002 tokyo main 579 572 OOOO_____OOO__ jtwc_wp WP011967 13.8000 131.100 30 -1 10.0000 131.500 2 1002 0 0 0 10.0000 131.500 1 29 1002 11.5000 130.200 TD 30 1002 13.8000 131.100 TC 30 13.8000 131.100 1 30 13.8000 131.100 30 1002 300 17 0
1967028N05140 1967 11 WP MM RUBY 1967-02-04 03:00:00 TS 11.8772 131.021 main 575 575 PPPP_____PPP__ WP011967 13.5151 130.855 30 -1 10.2650 131.558 2 1002 0 0 10.2650 131.558 1 29 1002 11.7725 130.235 TD 30 1002 13.5151 130.855 TC 30 13.6219 130.947 1 30 13.5151 130.855 30 1002 300 9 352
1967028N05140 1967 11 WP MM RUBY 1967-02-04 06:00:00 TS 12.1681 130.949 1002 tokyo main 571 571 OOOO_____OPO__ jtwc_wp WP011967 13.3000 130.700 30 -1 10.5000 131.600 2 1002 0 0 0 10.5000 131.600 1 29 1002 12.0000 130.300 TD 30 1002 13.3000 130.700 TC 30 13.4449 130.825 1 30 13.3000 130.700 30 1002 300 5 349
1967028N05140 1967 11 WP MM RUBY 1967-02-04 09:00:00 TS 12.3315 130.930 main 574 574 PPPP_____PPP__ WP011967 13.1925 130.698 30 -1 10.6500 131.643 2 1002 0 0 10.6500 131.643 1 29 1002 12.1725 130.370 TD 30 1002 13.1925 130.698 TC 30 13.2705 130.765 1 30 13.1925 130.698 30 1002 300 2 22
1967028N05140 1967 11 WP MM RUBY 1967-02-04 12:00:00 TS 12.3286 131.014 1002 tokyo main 585 585 OOOO_____OOO__ jtwc_wp WP011967 13.1000 130.800 30 -1 10.8000 131.700 2 1002 0 0 0 10.8000 131.700 1 29 1002 12.3000 130.500 TD 30 1002 13.1000 130.800 TC 30 13.1000 130.800 1 30 13.1000 130.800 30 1002 300 2 95
1967028N05140 1967 11 WP MM RUBY 1967-02-04 15:00:00 TS 12.3120 131.145 main 595 595 PPPP_____PPP__ WP011967 12.9150 130.920 30 -1 11.0350 131.800 2 1002 0 0 11.0350 131.792 1 29 1002 12.4375 130.720 TD 30 1002 12.9150 130.920 TC 30 12.9317 130.946 1 30 12.9150 130.920 30 1002 270 3 99
1967028N05140 1967 11 WP MM RUBY 1967-02-04 18:00:00 TS 12.2790 131.323 1002 tokyo main 616 616 OOOO_____OPO__ jtwc_wp WP011967 12.7000 131.100 30 -1 11.3000 131.900 2 1002 0 0 0 11.3000 131.900 1 29 1002 12.5000 131.000 TD 30 1002 12.7000 131.100 TC 30 12.7528 131.163 1 30 12.7000 131.100 30 1002 240 4 99
1967028N05140 1967 11 WP MM RUBY 1967-02-04 21:00:00 TS 12.2500 131.544 main 638 638 PPPP_____PPP__ WP011967 12.5226 131.358 30 -1 11.5875 131.980 2 1002 0 0 11.5875 132.037 1 29 1002 12.4601 131.323 TD 30 1002 12.5226 131.358 TC 30 12.5474 131.399 1 30 12.5226 131.358 30 1001 240 4 107
1967028N05140 1967 11 WP MM RUBY 1967-02-05 00:00:00 TS 12.1571 131.729 1002 tokyo main 656 654 OOOO_____OOO__ jtwc_wp WP011967 12.3000 131.600 30 -1 11.8000 132.000 2 1002 0 0 0 11.8000 132.100 1 29 1002 12.3000 131.600 TD 30 1002 12.3000 131.600 TC 30 12.3000 131.600 1 30 12.3000 131.600 30 1001 240 4 140
1967028N05140 1967 11 WP MM RUBY 1967-02-05 03:00:00 TS 11.9579 131.798 main 663 659 PPPP_____PPP__ WP011967 11.9725 131.738 35 0 11.8750 131.938 2 1001 0 0 11.8750 131.995 1 33 1001 12.0449 131.737 TD 32 1001 11.9725 131.738 TC 35 11.9930 131.705 1 32 11.9725 131.738 35 999 240 5 172
1967028N05140 1967 11 WP MM RUBY 1967-02-05 06:00:00 TS 11.6778 131.795 1000 tokyo main 659 656 OOOO_____OPO__ jtwc_wp WP011967 11.6000 131.800 40 0 11.8000 131.800 9 1000 0 0 0 11.8000 131.800 2 38 1000 11.7000 131.800 TS 35 1001 11.6000 131.800 TC 40 11.6449 131.767 1 35 11.6000 131.800 40 998 240 6 184
1967028N05140 1967 11 WP MM RUBY 1967-02-05 09:00:00 TS 11.3581 131.760 main 656 635 PPPP_____PPP__ WP011967 11.2500 131.815 40 0 11.5875 131.607 9 1000 0 0 11.5875 131.600 2 38 1000 11.3075 131.873 TS 37 1000 11.2500 131.815 TC 40 11.2743 131.796 1 37 11.2500 131.815 40 997 210 7 188
1967028N05140 1967 11 WP MM RUBY 1967-02-05 12:00:00 TS 11.0143 131.700 1000 tokyo main 635 625 OOOO_____OOO__ jtwc_wp WP011967 10.9000 131.800 40 0 11.3000 131.400 9 1000 0 0 0 11.3000 131.400 2 38 1000 10.9000 131.900 TS 40 1000 10.9000 131.800 TC 40 10.9000 131.800 2 40 10.9000 131.800 40 996 180 7 190
1967028N05140 1967 11 WP MM RUBY 1967-02-05 15:00:00 TS 10.6987 131.648 main 615 607 PPPP_____PPP__ WP011967 10.5500 131.808 40 0 11.0875 131.220 9 1000 0 0 11.0725 131.228 2 38 1001 10.5350 131.857 TS 40 1000 10.5500 131.808 TC 40 10.5459 131.809 2 40 10.5500 131.808 40 996 180 7 189
1967028N05140 1967 11 WP MM RUBY 1967-02-05 18:00:00 TS 10.3704 131.599 1000 tokyo main 607 597 OOOO_____OPO__ jtwc_wp WP011967 10.2000 131.800 40 0 10.8000 131.100 9 1000 0 0 0 10.8000 131.100 2 38 1002 10.2000 131.800 TS 40 1000 10.2000 131.800 TC 40 10.1925 131.795 2 40 10.2000 131.800 40 997 180 7 187
1967028N05140 1967 11 WP MM RUBY 1967-02-05 21:00:00 TS 10.0118 131.562 main 597 580 PPPP_____PPP__ WP011967 9.85000 131.765 40 0 10.3375 131.047 9 1001 0 0 10.4375 131.028 2 38 1003 9.91499 131.808 TS 40 1000 9.85000 131.765 TC 40 9.84279 131.759 2 40 9.85000 131.765 40 997 180 8 186
1967028N05140 1967 11 WP MM RUBY 1967-02-06 00:00:00 TS 9.62857 131.529 1002 tokyo main 578 564 OOOO_____OOO__ jtwc_wp WP011967 9.50000 131.700 40 0 9.80000 131.100 9 1002 0 0 0 10.0000 131.000 2 38 1005 9.60000 131.800 TS 40 1000 9.50000 131.700 TC 40 9.50000 131.700 2 40 9.50000 131.700 40 997 180 8 184
1967028N05140 1967 11 WP MM RUBY 1967-02-06 03:00:00 TS 9.21755 131.504 main 564 553 PPPP_____PPP__ WP011967 9.14250 131.607 37 0 9.27755 131.345 9 1002 0 0 9.50750 131.000 2 38 1004 9.14250 131.722 TS 37 1001 9.14250 131.607 TC 37 9.16779 131.638 2 38 9.14250 131.607 37 997 150 8 185
1967028N05140 1967 11 WP MM RUBY 1967-02-06 06:00:00 TS 8.82035 131.450 1002 tokyo main 553 525 OOOO_____OPO__ jtwc_wp WP011967 8.80000 131.500 35 0 8.80000 131.500 9 1002 0 0 0 9.00000 131.000 2 38 1004 8.70000 131.600 TS 35 1002 8.80000 131.500 TC 35 8.84245 131.553 2 37 8.80000 131.500 35 998 120 8 193
1967028N05140 1967 11 WP MM RUBY 1967-02-06 09:00:00 TS 8.49156 131.335 main 525 510 PPPP_____PPP__ WP011967 8.50748 131.415 35 0 8.42762 131.237 9 1002 0 0 8.52751 130.957 2 38 1004 8.44249 131.465 TS 35 1002 8.50748 131.415 TC 35 8.52089 131.441 2 36 8.50748 131.415 35 999 180 7 202
1967028N05140 1967 11 WP MM RUBY 1967-02-06 12:00:00 TS 8.17143 131.186 1002 tokyo main 510 496 OOOO_____OOO__ jtwc_wp WP011967 8.20000 131.300 35 0 8.10000 130.900 9 1002 0 0 0 8.10000 130.900 2 38 1004 8.20000 131.300 TS 35 1002 8.20000 131.300 TC 35 8.20000 131.300 2 35 8.20000 131.300 35 1000 240 8 202
1967028N05140 1967 11 WP MM RUBY 1967-02-06 15:00:00 TS 7.78924 131.042 main 485 474 PPPP_____PPP__ WP011967 7.79251 131.115 35 0 7.73496 130.820 9 1002 0 0 7.72749 130.865 2 38 1003 7.80744 131.138 TS 35 1002 7.79251 131.115 TC 35 7.87726 131.128 2 33 7.79251 131.115 35 1000 210 8 203
1967028N05140 1967 11 WP MM RUBY 1967-02-06 18:00:00 TS 7.41908 130.871 1002 tokyo main 474 452 OOOO_____OPO__ jtwc_wp WP011967 7.40000 130.900 35 0 7.40000 130.800 9 1002 0 0 0 7.40000 130.800 2 38 1003 7.40000 130.900 TS 35 1002 7.40000 130.900 TC 35 7.55263 130.932 2 32 7.40000 130.900 35 1001 180 8 209
1967028N05140 1967 11 WP MM RUBY 1967-02-06 21:00:00 TS 7.10319 130.657 main 453 422 PPPP_____PPP__ WP011967 7.11501 130.695 32 -1 7.11250 130.715 9 1002 0 0 7.06999 130.680 2 33 1003 7.04762 130.485 TS 32 1002 7.11501 130.695 TC 32 7.22667 130.720 2 31 7.11501 130.695 32 1001 180 7 218
1967028N05140 1967 11 WP MM RUBY 1967-02-07 00:00:00 MX 6.85000 130.425 1002 tokyo main 422 412 OOOO_____OOO__ jtwc_wp WP011967 6.90000 130.500 30 -1 6.90000 130.600 6 1002 0 0 0 6.80000 130.500 1 29 1003 6.80000 130.100 TD 30 1002 6.90000 130.500 TC 30 6.90000 130.500 1 30 6.90000 130.500 30 1002 180 6 226
1967028N05140 1967 11 WP MM RUBY 1967-02-07 03:00:00 MX 6.70579 130.246 main 403 392 _PPP__________ WP011967 -1 6.76997 130.480 6 1002 0 0 6.62750 130.273 1 29 1003 6.71991 129.985 TD 30 1002 TC 1 4 239
1967028N05140 1967 11 WP MM RUBY 1967-02-07 06:00:00 MX 6.63333 130.067 1002 tokyo main 394 364 _OOO__________ -1 6.70000 130.300 6 1002 0 0 0 6.50000 130.000 1 29 1003 6.70000 129.900 TD 30 1002 1 5 249
1967028N05140 1967 11 WP MM RUBY 1967-02-07 09:00:00 MX 6.52834 129.789 main 364 332 _PPP__________ -1 6.65000 130.030 6 1002 0 0 6.33500 129.707 1 29 1003 6.60002 129.630 TD 30 1002 1 6 251
1967028N05140 1967 11 WP MM RUBY 1967-02-07 12:00:00 MX 6.43333 129.467 1002 tokyo main 335 304 _OOO__________ -1 6.60000 129.700 6 1002 0 0 0 6.20000 129.400 1 29 1003 6.50000 129.300 TD 30 1002 7 255
1967028N05140 1967 11 WP MM RUBY 1967-02-07 15:00:00 MX 6.35915 129.153 main 304 276 _PPP__________ -1 6.51496 129.373 6 1002 0 0 6.12748 129.100 1 29 1003 6.43501 128.985 TD 27 1002 6 257
1967028N05140 1967 11 WP MM RUBY 1967-02-07 18:00:00 MX 6.29091 128.845 1002 tokyo main 266 238 _OOO__________ -1 6.40000 129.000 6 1002 0 0 0 6.10000 128.800 1 29 1003 6.40000 128.700 TD 25 1002 7 257
1967028N05140 1967 11 WP MM RUBY 1967-02-07 21:00:00 MX 6.20354 128.492 main 238 213 _PPP__________ -1 6.23510 128.512 6 1002 0 0 6.07751 128.478 1 29 1002 6.39250 128.480 TD 25 1002 7 257
1967028N05140 1967 11 WP MM RUBY 1967-02-08 00:00:00 MX 6.13333 128.167 1002 tokyo main 213 193 _OOO__________ -1 6.10000 128.100 6 1002 0 0 0 6.10000 128.200 1 29 1002 6.40000 128.300 TD 25 1002 5 262
1967028N05140 1967 11 WP MM RUBY 1967-02-08 03:00:00 MX 6.13121 127.980 main 193 178 _PP___________ -1 6.06994 127.940 6 1002 0 0 6.19248 128.020 1 29 1001 TD 3 284
1967028N05140 1967 11 WP MM RUBY 1967-02-08 06:00:00 MX 6.20000 127.900 1002 tokyo main 178 168 _OO___________ -1 6.10000 127.900 6 1002 0 0 0 6.30000 127.900 1 29 1001 2 306
1967028N05140 1967 11 WP MM RUBY 1967-02-08 09:00:00 MX 6.24624 127.821 main 168 163 _PP___________ -1 6.14249 127.850 6 1002 0 0 6.34999 127.792 1 29 1001 2 304
1967028N05140 1967 11 WP MM RUBY 1967-02-08 12:00:00 MX 6.30000 127.750 1002 tokyo main 163 148 _OO___________ -1 6.20000 127.800 6 1002 0 0 0 6.40000 127.700 1 29 1001 2 305
1967028N05140 1967 11 WP MM RUBY 1967-02-08 15:00:00 MX 6.36750 127.650 main 148 138 _PP___________ -1 6.23500 127.707 6 1002 0 0 6.50000 127.593 1 29 1001 3 307
1967028N05140 1967 11 WP MM RUBY 1967-02-08 18:00:00 MX 6.45000 127.550 1002 tokyo main 133 123 _OO___________ -1 6.30000 127.600 6 1002 0 0 0 6.60000 127.500 1 29 1002 3 317
1967028N05140 1967 11 WP MM RUBY 1967-02-08 21:00:00 MX 6.55000 127.475 main 123 109 _PP___________ -1 6.44250 127.500 6 1003 0 0 6.65749 127.450 1 29 1002 3 323
1967028N05140 1967 11 WP MM RUBY 1967-02-09 00:00:00 MX 6.65000 127.400 1004 tokyo main 104 94 _OO___________ -1 6.60000 127.400 6 1004 0 0 0 6.70000 127.400 1 29 1002 2 316
1967028N05140 1967 11 WP MM RUBY 1967-02-09 03:00:00 MX 6.72500 127.304 main 94 80 _PP___________ -1 6.70750 127.300 6 1004 0 0 6.74250 127.307 1 29 1002 2 307
1967028N05140 1967 11 WP MM RUBY 1967-02-09 06:00:00 MX 6.80000 127.200 1004 tokyo main 80 67 _OO___________ -1 6.80000 127.200 6 1004 0 0 0 6.80000 127.200 1 29 1002 3 310
1967028N05140 1967 11 WP MM RUBY 1967-02-09 09:00:00 MX 6.89375 127.099 main 67 55 _PP___________ -1 6.89750 127.100 6 1004 0 0 6.89000 127.098 1 1003 3 315
1967028N05140 1967 11 WP MM RUBY 1967-02-09 12:00:00 MX 7.00000 127.000 1004 tokyo main 55 _OO___________ -1 7.00000 127.000 6 1004 0 0 0 7.00000 127.000 0 1004 3 318

デジタル台風データ・検索

IBTrACS Databaseについて

本データベースは、米国NOAAが公開する1842年以降の世界の熱帯低気圧のベストトラックデータアーカイブInternational Best Track Archive for Climate Stewardship (IBTrACS)を、ウェブで閲覧しやすい形式に変換したものです。

最終更新日:2021-10-21